This is the latest recevied weather packets stored in our database for station/object DL1NER. If no packets are shown the sender has not sent any weather packets the latest 10 day(s).
| Time | Temp. | Humidity | Pressure | Rain* | Wind** | Luminosity | Snow |
|---|---|---|---|---|---|---|---|
| 1777705813 | 13.33° C | 55% | 1024 hPa | 0 mm | - | 0 W/m² | - |
| 1777705213 | 12.22° C | 59% | 1023.9 hPa | 0 mm | - | 0 W/m² | - |
| 1777704613 | 11.67° C | 61% | 1023.9 hPa | 0 mm | - | 0 W/m² | - |
| 1777704013 | 10.56° C | 62% | 1024.1 hPa | 0 mm | - | 0 W/m² | - |
| 1777703413 | 9.44° C | 65% | 1024.2 hPa | 0 mm | - | 0 W/m² | - |
| 1777702813 | 8.33° C | 69% | 1024.1 hPa | 0 mm | - | 0 W/m² | - |
| 1777702213 | 7.22° C | 72% | 1024.1 hPa | 0 mm | - | 0 W/m² | - |
| 1777701613 | 6.67° C | 72% | 1024.1 hPa | 0 mm | - | 0 W/m² | - |
| 1777701013 | 6.67° C | 74% | 1024.2 hPa | 0 mm | - | 0 W/m² | - |
| 1777700413 | 5.56° C | 80% | 1024.4 hPa | 0 mm | - | 0 W/m² | - |
| 1777699813 | 5° C | 83% | 1024.3 hPa | 0 mm | - | 0 W/m² | - |
| 1777699213 | 4.44° C | 83% | 1024.3 hPa | 0 mm | - | 0 W/m² | - |
| 1777698613 | 4.44° C | 83% | 1024.2 hPa | 0 mm | - | 0 W/m² | - |
| 1777698013 | 4.44° C | 83% | 1024.3 hPa | 0 mm | - | 0 W/m² | - |
| 1777697413 | 3.89° C | 83% | 1024.3 hPa | 0 mm | - | 0 W/m² | - |
| 1777696812 | 3.89° C | 80% | 1024.3 hPa | 0 mm | - | 0 W/m² | - |
| 1777696212 | 3.89° C | 78% | 1024.3 hPa | 0 mm | - | 0 W/m² | - |
| 1777695612 | 3.89° C | 78% | 1024.3 hPa | 0 mm | - | 0 W/m² | - |
| 1777695012 | 3.89° C | 77% | 1024.3 hPa | 0 mm | - | 0 W/m² | - |
| 1777694412 | 3.89° C | 77% | 1024.3 hPa | 0 mm | - | 0 W/m² | - |
| 1777693812 | 3.89° C | 76% | 1024.3 hPa | 0 mm | - | 0 W/m² | - |
| 1777693212 | 3.89° C | 76% | 1024.3 hPa | 0 mm | - | 0 W/m² | - |
| 1777692612 | 4.44° C | 75% | 1024.4 hPa | 0 mm | - | 0 W/m² | - |
| 1777692012 | 4.44° C | 74% | 1024.4 hPa | 0 mm | - | 0 W/m² | - |
| 1777691412 | 4.44° C | 74% | 1024.5 hPa | 0 mm | - | 0 W/m² | - |
* Rain latest hour (hover to see other rain measurements)
** Current wind speed in m/s (hover to see current wind gust speed)